sensor_id;sensor_type;location;lat;lon;timestamp;P1;durP1;ratioP1;P2;durP2;ratioP2
17947;SDS011;9099;47.958;11.366;2022-08-18T00:00:54;5.93;;;5.53;;
17947;SDS011;9099;47.958;11.366;2022-08-18T00:03:29;5.75;;;5.35;;
17947;SDS011;9099;47.958;11.366;2022-08-18T00:05:57;5.80;;;5.30;;
17947;SDS011;9099;47.958;11.366;2022-08-18T00:08:24;6.38;;;5.80;;
17947;SDS011;9099;47.958;11.366;2022-08-18T00:10:53;6.00;;;5.28;;
17947;SDS011;9099;47.958;11.366;2022-08-18T00:13:20;5.70;;;5.15;;
17947;SDS011;9099;47.958;11.366;2022-08-18T00:15:47;5.22;;;4.82;;
17947;SDS011;9099;47.958;11.366;2022-08-18T00:18:16;6.40;;;5.15;;
17947;SDS011;9099;47.958;11.366;2022-08-18T00:20:43;6.30;;;5.70;;
17947;SDS011;9099;47.958;11.366;2022-08-18T00:23:10;5.45;;;5.05;;
17947;SDS011;9099;47.958;11.366;2022-08-18T00:25:37;4.85;;;4.43;;
17947;SDS011;9099;47.958;11.366;2022-08-18T00:28:04;5.10;;;4.70;;
17947;SDS011;9099;47.958;11.366;2022-08-18T00:30:31;5.35;;;4.95;;
17947;SDS011;9099;47.958;11.366;2022-08-18T00:32:59;5.13;;;4.63;;
17947;SDS011;9099;47.958;11.366;2022-08-18T00:35:28;5.40;;;5.00;;
17947;SDS011;9099;47.958;11.366;2022-08-18T00:37:57;5.22;;;4.78;;
17947;SDS011;9099;47.958;11.366;2022-08-18T00:40:30;5.50;;;5.10;;
17947;SDS011;9099;47.958;11.366;2022-08-18T00:43:03;5.38;;;4.97;;
17947;SDS011;9099;47.958;11.366;2022-08-18T00:45:32;4.85;;;4.50;;
17947;SDS011;9099;47.958;11.366;2022-08-18T00:48:02;5.18;;;4.80;;
17947;SDS011;9099;47.958;11.366;2022-08-18T00:50:32;5.10;;;4.75;;
17947;SDS011;9099;47.958;11.366;2022-08-18T00:53:05;5.03;;;4.63;;
17947;SDS011;9099;47.958;11.366;2022-08-18T00:55:37;5.07;;;4.72;;
17947;SDS011;9099;47.958;11.366;2022-08-18T00:58:07;4.93;;;4.53;;
17947;SDS011;9099;47.958;11.366;2022-08-18T01:00:39;4.63;;;4.32;;
17947;SDS011;9099;47.958;11.366;2022-08-18T01:03:08;5.22;;;4.72;;
17947;SDS011;9099;47.958;11.366;2022-08-18T01:05:42;4.60;;;4.30;;
17947;SDS011;9099;47.958;11.366;2022-08-18T01:08:14;4.20;;;3.90;;
17947;SDS011;9099;47.958;11.366;2022-08-18T01:10:42;5.20;;;4.90;;
17947;SDS011;9099;47.958;11.366;2022-08-18T01:13:10;4.38;;;4.03;;
17947;SDS011;9099;47.958;11.366;2022-08-18T01:15:37;4.35;;;4.10;;
17947;SDS011;9099;47.958;11.366;2022-08-18T01:18:06;4.30;;;4.10;;
17947;SDS011;9099;47.958;11.366;2022-08-18T01:20:56;4.20;;;3.97;;
17947;SDS011;9099;47.958;11.366;2022-08-18T01:23:48;4.68;;;4.38;;
17947;SDS011;9099;47.958;11.366;2022-08-18T01:26:17;4.38;;;4.07;;
17947;SDS011;9099;47.958;11.366;2022-08-18T01:28:44;4.35;;;4.05;;
17947;SDS011;9099;47.958;11.366;2022-08-18T01:31:28;4.60;;;4.20;;
17947;SDS011;9099;47.958;11.366;2022-08-18T01:33:59;4.05;;;3.85;;
17947;SDS011;9099;47.958;11.366;2022-08-18T01:36:26;4.57;;;4.28;;
17947;SDS011;9099;47.958;11.366;2022-08-18T01:38:55;4.10;;;3.80;;
17947;SDS011;9099;47.958;11.366;2022-08-18T01:41:23;4.13;;;3.83;;
17947;SDS011;9099;47.958;11.366;2022-08-18T01:43:50;4.20;;;3.90;;
17947;SDS011;9099;47.958;11.366;2022-08-18T01:46:17;4.00;;;3.75;;
17947;SDS011;9099;47.958;11.366;2022-08-18T01:48:46;3.67;;;3.47;;
17947;SDS011;9099;47.958;11.366;2022-08-18T01:51:14;3.78;;;3.47;;
17947;SDS011;9099;47.958;11.366;2022-08-18T01:53:43;3.83;;;3.53;;
17947;SDS011;9099;47.958;11.366;2022-08-18T01:56:12;3.28;;;3.08;;
17947;SDS011;9099;47.958;11.366;2022-08-18T01:58:42;4.05;;;3.85;;
17947;SDS011;9099;47.958;11.366;2022-08-18T02:01:11;4.47;;;3.47;;
17947;SDS011;9099;47.958;11.366;2022-08-18T02:03:40;3.60;;;3.40;;
17947;SDS011;9099;47.958;11.366;2022-08-18T02:06:11;3.35;;;3.15;;
17947;SDS011;9099;47.958;11.366;2022-08-18T02:08:39;3.83;;;3.53;;
17947;SDS011;9099;47.958;11.366;2022-08-18T02:11:06;3.90;;;3.70;;
17947;SDS011;9099;47.958;11.366;2022-08-18T02:13:35;3.80;;;3.50;;
17947;SDS011;9099;47.958;11.366;2022-08-18T02:16:02;4.90;;;3.55;;
17947;SDS011;9099;47.958;11.366;2022-08-18T02:18:32;4.10;;;3.80;;
17947;SDS011;9099;47.958;11.366;2022-08-18T02:21:05;3.60;;;3.30;;
17947;SDS011;9099;47.958;11.366;2022-08-18T02:23:34;3.60;;;3.40;;
17947;SDS011;9099;47.958;11.366;2022-08-18T02:26:03;3.85;;;3.65;;
17947;SDS011;9099;47.958;11.366;2022-08-18T02:28:31;3.80;;;3.50;;
17947;SDS011;9099;47.958;11.366;2022-08-18T02:31:04;3.97;;;3.67;;
17947;SDS011;9099;47.958;11.366;2022-08-18T02:33:31;3.58;;;3.38;;
17947;SDS011;9099;47.958;11.366;2022-08-18T02:35:59;3.83;;;3.53;;
17947;SDS011;9099;47.958;11.366;2022-08-18T02:38:26;3.75;;;3.47;;
17947;SDS011;9099;47.958;11.366;2022-08-18T02:40:54;3.70;;;3.50;;
17947;SDS011;9099;47.958;11.366;2022-08-18T02:43:21;3.90;;;3.70;;
17947;SDS011;9099;47.958;11.366;2022-08-18T02:45:48;3.70;;;3.50;;
17947;SDS011;9099;47.958;11.366;2022-08-18T02:48:17;3.80;;;3.50;;
17947;SDS011;9099;47.958;11.366;2022-08-18T02:50:46;3.70;;;3.50;;
17947;SDS011;9099;47.958;11.366;2022-08-18T02:53:14;3.70;;;3.50;;
17947;SDS011;9099;47.958;11.366;2022-08-18T02:55:46;3.35;;;3.13;;
17947;SDS011;9099;47.958;11.366;2022-08-18T02:58:14;3.20;;;3.00;;
17947;SDS011;9099;47.958;11.366;2022-08-18T03:00:41;3.40;;;3.13;;
17947;SDS011;9099;47.958;11.366;2022-08-18T03:03:08;3.58;;;3.30;;
17947;SDS011;9099;47.958;11.366;2022-08-18T03:05:36;3.70;;;3.50;;
17947;SDS011;9099;47.958;11.366;2022-08-18T03:08:03;3.70;;;3.50;;
17947;SDS011;9099;47.958;11.366;2022-08-18T03:10:30;3.72;;;3.40;;
17947;SDS011;9099;47.958;11.366;2022-08-18T03:12:57;3.40;;;3.20;;
17947;SDS011;9099;47.958;11.366;2022-08-18T03:15:23;3.20;;;3.00;;
17947;SDS011;9099;47.958;11.366;2022-08-18T03:17:50;3.83;;;3.53;;
17947;SDS011;9099;47.958;11.366;2022-08-18T03:20:17;3.30;;;3.10;;
17947;SDS011;9099;47.958;11.366;2022-08-18T03:22:45;3.65;;;3.45;;
17947;SDS011;9099;47.958;11.366;2022-08-18T03:25:13;3.45;;;3.28;;
17947;SDS011;9099;47.958;11.366;2022-08-18T03:27:40;3.60;;;3.30;;
17947;SDS011;9099;47.958;11.366;2022-08-18T03:30:07;3.20;;;3.05;;
17947;SDS011;9099;47.958;11.366;2022-08-18T03:32:35;3.40;;;3.20;;
17947;SDS011;9099;47.958;11.366;2022-08-18T03:35:02;3.60;;;3.30;;
17947;SDS011;9099;47.958;11.366;2022-08-18T03:37:29;3.30;;;3.10;;
17947;SDS011;9099;47.958;11.366;2022-08-18T03:39:58;3.88;;;3.65;;
17947;SDS011;9099;47.958;11.366;2022-08-18T03:42:25;3.38;;;3.17;;
17947;SDS011;9099;47.958;11.366;2022-08-18T03:44:52;3.55;;;3.30;;
17947;SDS011;9099;47.958;11.366;2022-08-18T03:47:19;3.55;;;3.35;;
17947;SDS011;9099;47.958;11.366;2022-08-18T03:49:46;3.63;;;3.42;;
17947;SDS011;9099;47.958;11.366;2022-08-18T03:52:13;4.00;;;3.70;;
17947;SDS011;9099;47.958;11.366;2022-08-18T03:54:40;3.70;;;3.40;;
17947;SDS011;9099;47.958;11.366;2022-08-18T03:57:08;4.18;;;3.80;;
17947;SDS011;9099;47.958;11.366;2022-08-18T03:59:36;3.15;;;2.95;;
17947;SDS011;9099;47.958;11.366;2022-08-18T04:02:08;4.03;;;3.55;;
17947;SDS011;9099;47.958;11.366;2022-08-18T04:04:36;3.78;;;3.58;;
17947;SDS011;9099;47.958;11.366;2022-08-18T04:07:06;3.88;;;3.67;;
17947;SDS011;9099;47.958;11.366;2022-08-18T04:09:35;3.78;;;3.58;;
17947;SDS011;9099;47.958;11.366;2022-08-18T04:12:04;3.80;;;3.50;;
17947;SDS011;9099;47.958;11.366;2022-08-18T04:14:37;4.57;;;4.28;;
17947;SDS011;9099;47.958;11.366;2022-08-18T04:17:06;4.38;;;4.05;;
17947;SDS011;9099;47.958;11.366;2022-08-18T04:19:34;4.00;;;3.70;;
17947;SDS011;9099;47.958;11.366;2022-08-18T04:22:01;4.00;;;3.80;;
17947;SDS011;9099;47.958;11.366;2022-08-18T04:24:30;4.15;;;3.85;;
17947;SDS011;9099;47.958;11.366;2022-08-18T04:27:00;4.00;;;3.75;;
17947;SDS011;9099;47.958;11.366;2022-08-18T04:29:28;4.05;;;3.75;;
17947;SDS011;9099;47.958;11.366;2022-08-18T04:31:59;3.83;;;3.63;;
17947;SDS011;9099;47.958;11.366;2022-08-18T04:34:29;4.05;;;3.70;;
17947;SDS011;9099;47.958;11.366;2022-08-18T04:36:56;4.35;;;4.05;;
17947;SDS011;9099;47.958;11.366;2022-08-18T04:39:24;3.95;;;3.47;;
17947;SDS011;9099;47.958;11.366;2022-08-18T04:41:51;3.92;;;3.55;;
17947;SDS011;9099;47.958;11.366;2022-08-18T04:44:18;4.47;;;4.18;;
17947;SDS011;9099;47.958;11.366;2022-08-18T04:46:47;4.22;;;3.92;;
17947;SDS011;9099;47.958;11.366;2022-08-18T04:49:17;3.85;;;3.60;;
17947;SDS011;9099;47.958;11.366;2022-08-18T04:51:47;3.83;;;3.63;;
17947;SDS011;9099;47.958;11.366;2022-08-18T04:54:29;4.10;;;3.80;;
17947;SDS011;9099;47.958;11.366;2022-08-18T04:57:05;4.28;;;3.97;;
17947;SDS011;9099;47.958;11.366;2022-08-18T04:59:33;4.13;;;3.83;;
17947;SDS011;9099;47.958;11.366;2022-08-18T05:02:00;4.28;;;3.97;;
17947;SDS011;9099;47.958;11.366;2022-08-18T05:04:31;4.35;;;4.05;;
17947;SDS011;9099;47.958;11.366;2022-08-18T05:06:59;3.85;;;3.42;;
17947;SDS011;9099;47.958;11.366;2022-08-18T05:09:26;3.90;;;3.60;;
17947;SDS011;9099;47.958;11.366;2022-08-18T05:11:52;3.92;;;3.63;;
17947;SDS011;9099;47.958;11.366;2022-08-18T05:14:19;4.28;;;3.88;;
17947;SDS011;9099;47.958;11.366;2022-08-18T05:16:46;4.32;;;4.03;;
17947;SDS011;9099;47.958;11.366;2022-08-18T05:19:14;4.07;;;3.78;;
17947;SDS011;9099;47.958;11.366;2022-08-18T05:21:47;3.38;;;3.17;;
17947;SDS011;9099;47.958;11.366;2022-08-18T05:24:14;3.70;;;3.40;;
17947;SDS011;9099;47.958;11.366;2022-08-18T05:26:41;3.90;;;3.60;;
17947;SDS011;9099;47.958;11.366;2022-08-18T05:29:08;3.80;;;3.60;;
17947;SDS011;9099;47.958;11.366;2022-08-18T05:31:35;4.20;;;3.97;;
17947;SDS011;9099;47.958;11.366;2022-08-18T05:34:02;4.28;;;4.03;;
17947;SDS011;9099;47.958;11.366;2022-08-18T05:39:22;4.03;;;3.70;;
17947;SDS011;9099;47.958;11.366;2022-08-18T05:41:51;4.38;;;4.10;;
17947;SDS011;9099;47.958;11.366;2022-08-18T05:44:21;5.13;;;4.72;;
17947;SDS011;9099;47.958;11.366;2022-08-18T05:46:52;3.72;;;3.53;;
17947;SDS011;9099;47.958;11.366;2022-08-18T05:49:21;4.28;;;4.00;;
17947;SDS011;9099;47.958;11.366;2022-08-18T05:51:53;4.53;;;4.22;;
17947;SDS011;9099;47.958;11.366;2022-08-18T05:54:22;4.43;;;4.05;;
17947;SDS011;9099;47.958;11.366;2022-08-18T05:57:16;4.68;;;4.38;;
17947;SDS011;9099;47.958;11.366;2022-08-18T05:59:46;3.92;;;3.60;;
17947;SDS011;9099;47.958;11.366;2022-08-18T06:02:14;3.85;;;3.65;;
17947;SDS011;9099;47.958;11.366;2022-08-18T06:04:44;4.03;;;3.72;;
17947;SDS011;9099;47.958;11.366;2022-08-18T06:07:18;3.75;;;3.53;;
17947;SDS011;9099;47.958;11.366;2022-08-18T06:09:56;4.03;;;3.80;;
17947;SDS011;9099;47.958;11.366;2022-08-18T06:12:25;4.40;;;4.00;;
17947;SDS011;9099;47.958;11.366;2022-08-18T06:14:58;4.30;;;3.90;;
17947;SDS011;9099;47.958;11.366;2022-08-18T06:17:44;4.40;;;4.00;;
17947;SDS011;9099;47.958;11.366;2022-08-18T06:20:37;4.43;;;3.95;;
17947;SDS011;9099;47.958;11.366;2022-08-18T06:23:24;4.25;;;3.47;;
17947;SDS011;9099;47.958;11.366;2022-08-18T06:26:00;3.45;;;3.22;;
17947;SDS011;9099;47.958;11.366;2022-08-18T06:28:37;4.07;;;3.60;;
17947;SDS011;9099;47.958;11.366;2022-08-18T06:31:21;3.75;;;3.55;;
17947;SDS011;9099;47.958;11.366;2022-08-18T06:33:55;3.75;;;3.55;;
17947;SDS011;9099;47.958;11.366;2022-08-18T06:36:32;3.30;;;3.10;;
17947;SDS011;9099;47.958;11.366;2022-08-18T06:39:18;3.72;;;3.42;;
17947;SDS011;9099;47.958;11.366;2022-08-18T06:41:52;3.17;;;2.97;;
17947;SDS011;9099;47.958;11.366;2022-08-18T06:44:21;3.40;;;3.20;;
17947;SDS011;9099;47.958;11.366;2022-08-18T06:46:54;3.63;;;3.33;;
17947;SDS011;9099;47.958;11.366;2022-08-18T06:49:31;3.55;;;3.28;;
17947;SDS011;9099;47.958;11.366;2022-08-18T06:52:20;3.40;;;3.20;;
17947;SDS011;9099;47.958;11.366;2022-08-18T06:54:52;3.35;;;3.15;;
17947;SDS011;9099;47.958;11.366;2022-08-18T06:57:22;3.50;;;3.30;;
17947;SDS011;9099;47.958;11.366;2022-08-18T06:59:57;4.00;;;3.70;;
17947;SDS011;9099;47.958;11.366;2022-08-18T07:05:16;3.97;;;3.58;;
17947;SDS011;9099;47.958;11.366;2022-08-18T07:07:56;3.60;;;3.40;;
17947;SDS011;9099;47.958;11.366;2022-08-18T07:10:32;3.72;;;3.53;;
17947;SDS011;9099;47.958;11.366;2022-08-18T07:13:05;3.90;;;3.60;;
17947;SDS011;9099;47.958;11.366;2022-08-18T07:15:32;3.63;;;3.35;;
17947;SDS011;9099;47.958;11.366;2022-08-18T07:18:01;3.58;;;3.38;;
17947;SDS011;9099;47.958;11.366;2022-08-18T07:20:30;3.95;;;3.65;;
17947;SDS011;9099;47.958;11.366;2022-08-18T07:23:05;3.55;;;3.35;;
17947;SDS011;9099;47.958;11.366;2022-08-18T07:25:37;4.07;;;3.67;;
17947;SDS011;9099;47.958;11.366;2022-08-18T07:28:06;3.53;;;3.33;;
17947;SDS011;9099;47.958;11.366;2022-08-18T07:30:51;3.72;;;3.50;;
17947;SDS011;9099;47.958;11.366;2022-08-18T07:33:32;3.40;;;3.17;;
17947;SDS011;9099;47.958;11.366;2022-08-18T07:35:59;3.67;;;3.47;;
17947;SDS011;9099;47.958;11.366;2022-08-18T07:38:30;3.28;;;3.08;;
17947;SDS011;9099;47.958;11.366;2022-08-18T07:41:03;3.85;;;3.60;;
17947;SDS011;9099;47.958;11.366;2022-08-18T07:43:38;3.67;;;3.38;;
17947;SDS011;9099;47.958;11.366;2022-08-18T07:46:11;3.78;;;3.47;;
17947;SDS011;9099;47.958;11.366;2022-08-18T07:48:42;3.50;;;3.30;;
17947;SDS011;9099;47.958;11.366;2022-08-18T07:51:13;4.15;;;3.67;;
17947;SDS011;9099;47.958;11.366;2022-08-18T07:53:50;3.35;;;3.15;;
17947;SDS011;9099;47.958;11.366;2022-08-18T07:56:26;3.13;;;2.92;;
17947;SDS011;9099;47.958;11.366;2022-08-18T07:59:00;3.17;;;2.97;;
17947;SDS011;9099;47.958;11.366;2022-08-18T08:01:32;4.20;;;3.80;;
17947;SDS011;9099;47.958;11.366;2022-08-18T08:04:09;3.15;;;3.00;;
17947;SDS011;9099;47.958;11.366;2022-08-18T08:06:41;3.70;;;3.40;;
17947;SDS011;9099;47.958;11.366;2022-08-18T08:09:16;3.53;;;3.22;;
17947;SDS011;9099;47.958;11.366;2022-08-18T08:11:54;3.40;;;3.10;;
17947;SDS011;9099;47.958;11.366;2022-08-18T08:14:36;3.78;;;3.47;;
17947;SDS011;9099;47.958;11.366;2022-08-18T08:17:10;3.25;;;3.05;;
17947;SDS011;9099;47.958;11.366;2022-08-18T08:19:50;3.45;;;3.25;;
17947;SDS011;9099;47.958;11.366;2022-08-18T08:22:36;3.40;;;3.20;;
17947;SDS011;9099;47.958;11.366;2022-08-18T08:25:07;3.28;;;3.00;;
17947;SDS011;9099;47.958;11.366;2022-08-18T08:27:44;3.47;;;3.28;;
17947;SDS011;9099;47.958;11.366;2022-08-18T08:30:20;3.22;;;3.03;;
17947;SDS011;9099;47.958;11.366;2022-08-18T08:32:54;3.47;;;3.28;;
17947;SDS011;9099;47.958;11.366;2022-08-18T08:35:31;3.10;;;2.90;;
17947;SDS011;9099;47.958;11.366;2022-08-18T08:38:04;3.67;;;3.38;;
17947;SDS011;9099;47.958;11.366;2022-08-18T08:40:39;3.90;;;3.60;;
17947;SDS011;9099;47.958;11.366;2022-08-18T08:43:14;3.65;;;3.10;;
17947;SDS011;9099;47.958;11.366;2022-08-18T08:45:48;4.10;;;3.80;;
17947;SDS011;9099;47.958;11.366;2022-08-18T08:48:22;3.70;;;3.40;;
17947;SDS011;9099;47.958;11.366;2022-08-18T08:50:52;3.20;;;3.00;;
17947;SDS011;9099;47.958;11.366;2022-08-18T08:53:24;3.78;;;3.47;;
17947;SDS011;9099;47.958;11.366;2022-08-18T08:55:55;3.20;;;3.00;;
17947;SDS011;9099;47.958;11.366;2022-08-18T08:58:27;3.13;;;2.92;;
17947;SDS011;9099;47.958;11.366;2022-08-18T09:00:59;3.53;;;3.33;;
17947;SDS011;9099;47.958;11.366;2022-08-18T09:03:30;3.38;;;3.20;;
17947;SDS011;9099;47.958;11.366;2022-08-18T09:06:08;3.50;;;3.30;;
17947;SDS011;9099;47.958;11.366;2022-08-18T09:08:53;2.90;;;2.80;;
17947;SDS011;9099;47.958;11.366;2022-08-18T09:20:29;3.25;;;3.05;;
17947;SDS011;9099;47.958;11.366;2022-08-18T09:23:06;3.45;;;3.25;;
17947;SDS011;9099;47.958;11.366;2022-08-18T09:28:38;4.03;;;3.72;;
17947;SDS011;9099;47.958;11.366;2022-08-18T09:31:21;3.30;;;3.10;;
17947;SDS011;9099;47.958;11.366;2022-08-18T09:36:46;3.25;;;3.03;;
17947;SDS011;9099;47.958;11.366;2022-08-18T09:39:26;3.55;;;3.35;;
17947;SDS011;9099;47.958;11.366;2022-08-18T09:42:15;3.33;;;3.13;;
17947;SDS011;9099;47.958;11.366;2022-08-18T09:54:05;4.10;;;3.90;;
17947;SDS011;9099;47.958;11.366;2022-08-18T09:57:04;4.20;;;4.00;;
17947;SDS011;9099;47.958;11.366;2022-08-18T09:59:51;4.85;;;3.78;;
17947;SDS011;9099;47.958;11.366;2022-08-18T10:06:02;3.70;;;3.45;;
17947;SDS011;9099;47.958;11.366;2022-08-18T10:11:32;3.38;;;3.17;;
17947;SDS011;9099;47.958;11.366;2022-08-18T10:14:11;3.33;;;3.13;;
17947;SDS011;9099;47.958;11.366;2022-08-18T10:16:53;3.92;;;3.63;;
17947;SDS011;9099;47.958;11.366;2022-08-18T10:19:31;4.18;;;3.97;;
17947;SDS011;9099;47.958;11.366;2022-08-18T10:22:09;3.70;;;3.50;;
17947;SDS011;9099;47.958;11.366;2022-08-18T10:24:37;4.22;;;4.03;;
17947;SDS011;9099;47.958;11.366;2022-08-18T10:30:01;3.42;;;3.22;;
17947;SDS011;9099;47.958;11.366;2022-08-18T10:38:20;4.10;;;3.90;;
17947;SDS011;9099;47.958;11.366;2022-08-18T10:40:51;3.70;;;3.50;;
17947;SDS011;9099;47.958;11.366;2022-08-18T10:43:29;4.53;;;4.13;;
17947;SDS011;9099;47.958;11.366;2022-08-18T10:46:02;3.97;;;3.67;;
17947;SDS011;9099;47.958;11.366;2022-08-18T10:48:30;5.20;;;4.00;;
17947;SDS011;9099;47.958;11.366;2022-08-18T10:51:01;4.00;;;3.80;;
17947;SDS011;9099;47.958;11.366;2022-08-18T10:53:36;3.80;;;3.60;;
17947;SDS011;9099;47.958;11.366;2022-08-18T10:56:09;3.63;;;3.42;;
17947;SDS011;9099;47.958;11.366;2022-08-18T10:58:47;3.90;;;3.70;;
17947;SDS011;9099;47.958;11.366;2022-08-18T11:01:36;3.92;;;3.72;;
17947;SDS011;9099;47.958;11.366;2022-08-18T11:04:26;3.92;;;3.60;;
17947;SDS011;9099;47.958;11.366;2022-08-18T11:07:01;4.00;;;3.70;;
17947;SDS011;9099;47.958;11.366;2022-08-18T11:09:32;4.13;;;3.88;;
17947;SDS011;9099;47.958;11.366;2022-08-18T11:12:01;3.50;;;3.20;;
17947;SDS011;9099;47.958;11.366;2022-08-18T11:14:46;4.00;;;3.70;;
17947;SDS011;9099;47.958;11.366;2022-08-18T11:17:38;3.42;;;3.20;;
17947;SDS011;9099;47.958;11.366;2022-08-18T11:20:13;3.63;;;3.33;;
17947;SDS011;9099;47.958;11.366;2022-08-18T11:22:48;3.83;;;3.60;;
17947;SDS011;9099;47.958;11.366;2022-08-18T11:25:21;3.65;;;3.25;;
17947;SDS011;9099;47.958;11.366;2022-08-18T11:27:50;3.35;;;3.10;;
17947;SDS011;9099;47.958;11.366;2022-08-18T11:30:17;3.85;;;3.60;;
17947;SDS011;9099;47.958;11.366;2022-08-18T11:32:44;3.60;;;3.30;;
17947;SDS011;9099;47.958;11.366;2022-08-18T11:35:15;3.60;;;3.42;;
17947;SDS011;9099;47.958;11.366;2022-08-18T11:37:45;4.43;;;3.20;;
17947;SDS011;9099;47.958;11.366;2022-08-18T11:40:28;3.05;;;2.95;;
17947;SDS011;9099;47.958;11.366;2022-08-18T11:42:59;4.00;;;3.70;;
17947;SDS011;9099;47.958;11.366;2022-08-18T11:45:31;3.83;;;3.63;;
17947;SDS011;9099;47.958;11.366;2022-08-18T11:48:01;3.78;;;3.47;;
17947;SDS011;9099;47.958;11.366;2022-08-18T11:50:45;4.10;;;3.80;;
17947;SDS011;9099;47.958;11.366;2022-08-18T11:53:15;3.72;;;3.47;;
17947;SDS011;9099;47.958;11.366;2022-08-18T11:56:03;3.85;;;3.45;;
17947;SDS011;9099;47.958;11.366;2022-08-18T11:58:37;3.97;;;3.67;;
17947;SDS011;9099;47.958;11.366;2022-08-18T12:01:05;4.15;;;3.90;;
17947;SDS011;9099;47.958;11.366;2022-08-18T12:03:36;4.18;;;3.88;;
17947;SDS011;9099;47.958;11.366;2022-08-18T12:06:10;4.10;;;3.80;;
17947;SDS011;9099;47.958;11.366;2022-08-18T12:08:50;4.20;;;3.80;;
17947;SDS011;9099;47.958;11.366;2022-08-18T12:11:23;4.03;;;3.60;;
17947;SDS011;9099;47.958;11.366;2022-08-18T12:14:03;3.63;;;3.40;;
17947;SDS011;9099;47.958;11.366;2022-08-18T12:16:36;4.03;;;3.63;;
17947;SDS011;9099;47.958;11.366;2022-08-18T12:19:06;3.95;;;3.65;;
17947;SDS011;9099;47.958;11.366;2022-08-18T12:21:38;4.40;;;4.10;;
17947;SDS011;9099;47.958;11.366;2022-08-18T12:24:08;4.75;;;4.25;;
17947;SDS011;9099;47.958;11.366;2022-08-18T12:26:45;4.38;;;4.07;;
17947;SDS011;9099;47.958;11.366;2022-08-18T12:29:13;4.55;;;4.15;;
17947;SDS011;9099;47.958;11.366;2022-08-18T12:31:41;4.18;;;3.88;;
17947;SDS011;9099;47.958;11.366;2022-08-18T12:34:08;4.80;;;4.40;;
17947;SDS011;9099;47.958;11.366;2022-08-18T12:36:35;4.28;;;3.97;;
17947;SDS011;9099;47.958;11.366;2022-08-18T12:39:02;4.10;;;3.70;;
17947;SDS011;9099;47.958;11.366;2022-08-18T12:41:29;4.30;;;4.00;;
17947;SDS011;9099;47.958;11.366;2022-08-18T12:43:58;4.60;;;4.20;;
17947;SDS011;9099;47.958;11.366;2022-08-18T12:46:25;4.30;;;4.05;;
17947;SDS011;9099;47.958;11.366;2022-08-18T12:48:52;4.07;;;3.78;;
17947;SDS011;9099;47.958;11.366;2022-08-18T12:51:19;4.50;;;4.20;;
17947;SDS011;9099;47.958;11.366;2022-08-18T12:53:46;4.28;;;4.07;;
17947;SDS011;9099;47.958;11.366;2022-08-18T12:56:15;4.47;;;4.07;;
17947;SDS011;9099;47.958;11.366;2022-08-18T12:58:46;4.35;;;3.80;;
17947;SDS011;9099;47.958;11.366;2022-08-18T13:01:15;4.30;;;4.10;;
17947;SDS011;9099;47.958;11.366;2022-08-18T13:03:42;4.57;;;4.15;;
17947;SDS011;9099;47.958;11.366;2022-08-18T13:06:09;4.78;;;4.32;;
17947;SDS011;9099;47.958;11.366;2022-08-18T13:08:37;5.38;;;4.10;;
17947;SDS011;9099;47.958;11.366;2022-08-18T13:11:05;4.65;;;4.35;;
17947;SDS011;9099;47.958;11.366;2022-08-18T13:13:35;4.55;;;4.25;;
17947;SDS011;9099;47.958;11.366;2022-08-18T13:16:03;4.13;;;3.83;;
17947;SDS011;9099;47.958;11.366;2022-08-18T13:18:33;4.28;;;3.97;;
17947;SDS011;9099;47.958;11.366;2022-08-18T13:21:01;4.80;;;4.50;;
17947;SDS011;9099;47.958;11.366;2022-08-18T13:23:30;4.63;;;4.22;;
17947;SDS011;9099;47.958;11.366;2022-08-18T13:26:38;5.70;;;4.43;;
17947;SDS011;9099;47.958;11.366;2022-08-18T13:29:36;4.60;;;4.30;;
17947;SDS011;9099;47.958;11.366;2022-08-18T13:32:05;5.50;;;5.10;;
17947;SDS011;9099;47.958;11.366;2022-08-18T13:37:56;4.70;;;4.40;;
17947;SDS011;9099;47.958;11.366;2022-08-18T13:40:23;4.93;;;4.53;;
17947;SDS011;9099;47.958;11.366;2022-08-18T13:42:50;5.15;;;4.65;;
17947;SDS011;9099;47.958;11.366;2022-08-18T13:45:19;5.03;;;4.72;;
17947;SDS011;9099;47.958;11.366;2022-08-18T13:47:47;5.15;;;4.78;;
17947;SDS011;9099;47.958;11.366;2022-08-18T13:50:15;4.68;;;4.38;;
17947;SDS011;9099;47.958;11.366;2022-08-18T13:52:43;4.97;;;4.57;;
17947;SDS011;9099;47.958;11.366;2022-08-18T13:55:13;5.35;;;4.55;;
17947;SDS011;9099;47.958;11.366;2022-08-18T13:57:43;5.22;;;4.82;;
17947;SDS011;9099;47.958;11.366;2022-08-18T14:00:13;5.20;;;4.80;;
17947;SDS011;9099;47.958;11.366;2022-08-18T14:02:45;5.18;;;4.78;;
17947;SDS011;9099;47.958;11.366;2022-08-18T14:05:16;5.63;;;5.22;;
17947;SDS011;9099;47.958;11.366;2022-08-18T14:07:42;4.88;;;4.57;;
17947;SDS011;9099;47.958;11.366;2022-08-18T14:10:12;5.28;;;4.78;;
17947;SDS011;9099;47.958;11.366;2022-08-18T14:12:41;5.05;;;4.75;;
17947;SDS011;9099;47.958;11.366;2022-08-18T14:15:09;5.30;;;4.90;;
17947;SDS011;9099;47.958;11.366;2022-08-18T14:17:37;5.47;;;5.07;;
17947;SDS011;9099;47.958;11.366;2022-08-18T14:20:05;4.70;;;4.40;;
17947;SDS011;9099;47.958;11.366;2022-08-18T14:22:51;4.95;;;4.65;;
17947;SDS011;9099;47.958;11.366;2022-08-18T14:25:39;5.10;;;4.70;;
17947;SDS011;9099;47.958;11.366;2022-08-18T14:28:23;4.55;;;4.35;;
17947;SDS011;9099;47.958;11.366;2022-08-18T14:30:52;4.72;;;4.43;;
17947;SDS011;9099;47.958;11.366;2022-08-18T14:33:20;4.80;;;4.50;;
17947;SDS011;9099;47.958;11.366;2022-08-18T14:35:48;4.85;;;4.45;;
17947;SDS011;9099;47.958;11.366;2022-08-18T14:38:15;4.95;;;4.65;;
17947;SDS011;9099;47.958;11.366;2022-08-18T14:40:44;6.50;;;4.70;;
17947;SDS011;9099;47.958;11.366;2022-08-18T14:43:13;5.45;;;4.90;;
17947;SDS011;9099;47.958;11.366;2022-08-18T14:45:42;6.25;;;4.65;;
17947;SDS011;9099;47.958;11.366;2022-08-18T14:48:12;4.60;;;4.20;;
17947;SDS011;9099;47.958;11.366;2022-08-18T14:50:41;5.47;;;4.28;;
17947;SDS011;9099;47.958;11.366;2022-08-18T14:53:12;4.57;;;4.18;;
17947;SDS011;9099;47.958;11.366;2022-08-18T14:55:39;4.75;;;4.35;;
17947;SDS011;9099;47.958;11.366;2022-08-18T14:58:08;4.80;;;4.50;;
17947;SDS011;9099;47.958;11.366;2022-08-18T15:00:35;5.95;;;5.45;;
17947;SDS011;9099;47.958;11.366;2022-08-18T15:03:03;6.13;;;5.53;;
17947;SDS011;9099;47.958;11.366;2022-08-18T15:05:30;5.70;;;5.00;;
17947;SDS011;9099;47.958;11.366;2022-08-18T15:07:57;5.35;;;5.05;;
17947;SDS011;9099;47.958;11.366;2022-08-18T15:10:28;5.03;;;4.68;;
17947;SDS011;9099;47.958;11.366;2022-08-18T15:23:27;6.55;;;6.05;;
17947;SDS011;9099;47.958;11.366;2022-08-18T15:26:17;6.57;;;6.13;;
17947;SDS011;9099;47.958;11.366;2022-08-18T15:28:53;6.00;;;5.60;;
17947;SDS011;9099;47.958;11.366;2022-08-18T15:31:20;6.82;;;6.35;;
17947;SDS011;9099;47.958;11.366;2022-08-18T15:33:47;6.55;;;6.15;;
17947;SDS011;9099;47.958;11.366;2022-08-18T15:36:14;5.13;;;4.80;;
17947;SDS011;9099;47.958;11.366;2022-08-18T15:38:47;5.22;;;4.80;;
17947;SDS011;9099;47.958;11.366;2022-08-18T15:41:26;5.60;;;5.13;;
17947;SDS011;9099;47.958;11.366;2022-08-18T15:43:55;7.13;;;5.47;;
17947;SDS011;9099;47.958;11.366;2022-08-18T15:46:22;6.10;;;5.70;;
17947;SDS011;9099;47.958;11.366;2022-08-18T15:48:49;5.65;;;5.25;;
17947;SDS011;9099;47.958;11.366;2022-08-18T15:51:17;5.13;;;4.82;;
17947;SDS011;9099;47.958;11.366;2022-08-18T15:53:44;5.25;;;4.85;;
17947;SDS011;9099;47.958;11.366;2022-08-18T15:56:14;5.95;;;5.45;;
17947;SDS011;9099;47.958;11.366;2022-08-18T15:58:42;6.30;;;5.80;;
17947;SDS011;9099;47.958;11.366;2022-08-18T16:01:11;5.93;;;5.50;;
17947;SDS011;9099;47.958;11.366;2022-08-18T16:03:38;5.95;;;5.55;;
17947;SDS011;9099;47.958;11.366;2022-08-18T16:06:11;5.55;;;5.05;;
17947;SDS011;9099;47.958;11.366;2022-08-18T16:09:11;5.13;;;4.82;;
17947;SDS011;9099;47.958;11.366;2022-08-18T16:11:56;6.32;;;5.85;;
17947;SDS011;9099;47.958;11.366;2022-08-18T16:14:23;5.75;;;5.30;;